createdAt,value
2023-04-20T00:00:19.384Z,4.53
2023-04-20T00:02:47.152Z,4.88
2023-04-20T00:05:20.885Z,4.40
2023-04-20T00:07:48.453Z,4.65
2023-04-20T00:10:15.456Z,4.22
2023-04-20T00:12:42.336Z,4.43
2023-04-20T00:15:09.825Z,4.03
2023-04-20T00:17:38.579Z,4.43
2023-04-20T00:22:32.169Z,4.03
2023-04-20T00:24:58.959Z,3.90
2023-04-20T00:27:25.624Z,4.32
2023-04-20T00:29:52.241Z,4.60
2023-04-20T00:32:18.950Z,4.15
2023-04-20T00:34:45.353Z,4.20
2023-04-20T00:37:13.155Z,3.88
2023-04-20T00:39:42.131Z,4.25
2023-04-20T00:42:09.108Z,4.30
2023-04-20T00:44:36.197Z,4.43
2023-04-20T00:49:58.093Z,4.43
2023-04-20T00:52:24.617Z,3.97
2023-04-20T00:54:51.804Z,3.88
2023-04-20T00:57:25.611Z,4.00
2023-04-20T00:59:51.935Z,4.13
2023-04-20T01:02:18.848Z,4.00
2023-04-20T01:04:47.070Z,4.50
2023-04-20T01:07:13.476Z,3.88
2023-04-20T01:09:41.450Z,4.22
2023-04-20T01:12:09.920Z,3.90
2023-04-20T01:14:36.251Z,3.78
2023-04-20T01:17:10.177Z,4.03
2023-04-20T01:19:36.552Z,4.03
2023-04-20T01:22:03.181Z,4.35
2023-04-20T01:24:33.101Z,4.25
2023-04-20T01:27:01.680Z,4.20
2023-04-20T01:31:55.581Z,3.92
2023-04-20T01:34:26.470Z,3.83
2023-04-20T01:36:54.383Z,3.67
2023-04-20T01:39:24.047Z,4.10
2023-04-20T01:41:50.717Z,3.60
2023-04-20T01:44:17.488Z,4.10
2023-04-20T01:46:48.113Z,3.90
2023-04-20T01:49:18.014Z,3.72
2023-04-20T01:51:44.759Z,3.58
2023-04-20T01:54:12.483Z,3.45
2023-04-20T01:56:38.830Z,3.65
2023-04-20T01:59:08.127Z,3.78
2023-04-20T02:01:35.192Z,3.60
2023-04-20T02:04:02.154Z,3.58
2023-04-20T02:06:28.582Z,3.55
2023-04-20T02:08:56.469Z,4.07
2023-04-20T02:11:23.030Z,3.33
2023-04-20T02:13:49.659Z,4.15
2023-04-20T02:16:22.259Z,3.80
2023-04-20T02:18:48.890Z,4.00
2023-04-20T02:21:15.526Z,3.97
2023-04-20T02:23:43.602Z,3.95
2023-04-20T02:26:12.804Z,3.72
2023-04-20T02:28:39.528Z,3.58
2023-04-20T02:31:10.055Z,3.78
2023-04-20T02:33:37.383Z,4.40
2023-04-20T02:36:06.654Z,4.00
2023-04-20T02:38:45.492Z,4.03
2023-04-20T02:41:13.446Z,4.85
2023-04-20T02:43:40.923Z,4.55
2023-04-20T02:46:10.548Z,4.93
2023-04-20T02:48:39.445Z,4.70
2023-04-20T02:51:06.838Z,5.28
2023-04-20T02:53:38.966Z,4.30
2023-04-20T02:56:05.457Z,4.80
2023-04-20T02:58:32.078Z,4.90
2023-04-20T03:01:00.645Z,4.85
2023-04-20T03:03:28.651Z,5.10
2023-04-20T03:05:56.776Z,5.10
2023-04-20T03:08:27.085Z,5.20
2023-04-20T03:10:54.710Z,5.25
2023-04-20T03:13:22.561Z,5.60
2023-04-20T03:15:50.302Z,4.85
2023-04-20T03:18:17.027Z,5.45
2023-04-20T03:20:43.409Z,5.05
2023-04-20T03:23:11.249Z,5.65
2023-04-20T03:25:38.860Z,5.57
2023-04-20T03:28:08.255Z,4.97
2023-04-20T03:30:36.481Z,5.63
2023-04-20T03:33:03.663Z,4.90
2023-04-20T03:35:30.211Z,4.97
2023-04-20T03:38:00.320Z,5.30
2023-04-20T03:40:27.932Z,4.80
2023-04-20T03:42:55.019Z,5.40
2023-04-20T03:45:29.521Z,5.70
2023-04-20T03:47:55.974Z,4.65
2023-04-20T03:50:23.505Z,5.57
2023-04-20T03:52:51.446Z,5.22
2023-04-20T03:55:18.000Z,4.45
2023-04-20T03:57:47.484Z,4.47
2023-04-20T04:00:14.541Z,5.00
2023-04-20T04:02:41.089Z,4.75
2023-04-20T04:05:07.956Z,4.65
2023-04-20T04:07:34.800Z,4.18
2023-04-20T04:10:04.764Z,4.35
2023-04-20T04:12:31.556Z,4.57
2023-04-20T04:15:00.182Z,4.43
2023-04-20T04:17:26.602Z,5.03
2023-04-20T04:19:55.407Z,4.43
2023-04-20T04:22:22.858Z,4.55
2023-04-20T04:24:49.321Z,4.32
2023-04-20T04:27:16.159Z,4.15
2023-04-20T04:29:46.148Z,4.15
2023-04-20T04:32:15.437Z,4.35
2023-04-20T04:34:44.258Z,4.30
2023-04-20T04:37:11.884Z,4.63
2023-04-20T04:39:38.606Z,4.10
2023-04-20T04:42:05.727Z,4.35
2023-04-20T04:44:34.111Z,4.20
2023-04-20T04:47:04.505Z,4.20
2023-04-20T04:49:33.318Z,4.25
2023-04-20T04:52:02.804Z,4.80
2023-04-20T04:54:29.523Z,4.93
2023-04-20T04:56:58.718Z,5.05
2023-04-20T04:59:26.774Z,4.68
2023-04-20T05:01:53.434Z,4.70
2023-04-20T05:04:21.982Z,5.28
2023-04-20T05:09:14.761Z,4.72
2023-04-20T05:11:43.811Z,4.95
2023-04-20T05:14:11.241Z,4.38
2023-04-20T05:16:39.878Z,5.03
2023-04-20T05:19:09.090Z,5.20
2023-04-20T05:21:40.393Z,4.72
2023-04-20T05:24:09.828Z,5.40
2023-04-20T05:26:36.642Z,5.25
2023-04-20T05:29:04.199Z,5.57
2023-04-20T05:31:36.574Z,6.40
2023-04-20T05:34:03.355Z,5.93
2023-04-20T05:36:33.710Z,6.10
2023-04-20T05:39:01.156Z,5.55
2023-04-20T05:41:33.323Z,6.15
2023-04-20T05:44:00.671Z,5.75
2023-04-20T05:46:31.626Z,6.47
2023-04-20T05:48:59.243Z,6.32
2023-04-20T05:51:34.440Z,6.33
2023-04-20T05:54:01.465Z,6.20
2023-04-20T05:56:30.202Z,6.15
2023-04-20T05:58:57.201Z,6.45
2023-04-20T06:01:23.553Z,6.50
2023-04-20T06:03:50.750Z,6.43
2023-04-20T06:06:22.142Z,5.47
2023-04-20T06:08:50.867Z,6.53
2023-04-20T06:11:24.811Z,5.50
2023-04-20T06:13:51.162Z,6.18
2023-04-20T06:16:19.542Z,5.93
2023-04-20T06:18:49.549Z,6.38
2023-04-20T06:21:18.338Z,6.32
2023-04-20T06:23:55.627Z,5.75
2023-04-20T06:26:22.074Z,6.22
2023-04-20T06:28:51.556Z,5.85
2023-04-20T06:31:19.825Z,5.88
2023-04-20T06:33:46.318Z,6.55
2023-04-20T06:36:16.939Z,6.20
2023-04-20T06:38:43.267Z,5.82
2023-04-20T06:41:09.852Z,6.55
2023-04-20T06:43:37.203Z,6.30
2023-04-20T06:46:03.784Z,6.22
2023-04-20T06:48:33.228Z,5.72
2023-04-20T06:51:06.996Z,6.57
2023-04-20T06:53:34.905Z,7.15
2023-04-20T06:56:01.764Z,6.82
2023-04-20T06:58:28.905Z,6.63
2023-04-20T07:00:55.280Z,6.75
2023-04-20T07:03:25.012Z,6.93
2023-04-20T07:05:53.224Z,6.93
2023-04-20T07:08:20.072Z,6.25
2023-04-20T07:10:57.372Z,6.80
2023-04-20T07:13:23.930Z,6.72
2023-04-20T07:15:50.920Z,7.68
2023-04-20T07:18:17.881Z,7.10
2023-04-20T07:20:47.025Z,5.97
2023-04-20T07:23:13.353Z,6.47
2023-04-20T07:25:39.687Z,6.80
2023-04-20T07:28:09.486Z,7.00
2023-04-20T07:30:35.862Z,7.18
2023-04-20T07:33:03.565Z,6.80
2023-04-20T07:35:29.923Z,6.78
2023-04-20T07:37:57.674Z,6.72
2023-04-20T07:40:51.034Z,7.25
2023-04-20T07:43:18.435Z,7.25
2023-04-20T07:45:45.142Z,6.95
2023-04-20T07:48:12.388Z,7.47
2023-04-20T07:50:42.110Z,7.32
2023-04-20T07:53:08.486Z,7.80
2023-04-20T07:55:35.182Z,7.93
2023-04-20T07:58:02.869Z,8.05
2023-04-20T08:00:29.538Z,8.50
2023-04-20T08:02:56.451Z,8.88
2023-04-20T08:05:26.674Z,7.88
2023-04-20T08:07:53.039Z,7.95
2023-04-20T08:10:21.624Z,9.02
2023-04-20T08:15:17.457Z,8.82
2023-04-20T08:17:43.833Z,8.50
2023-04-20T08:20:10.629Z,9.32
2023-04-20T08:22:47.964Z,9.23
2023-04-20T08:25:15.983Z,8.40
2023-04-20T08:27:43.052Z,8.38
2023-04-20T08:30:11.754Z,8.98
2023-04-20T08:32:42.315Z,8.27
2023-04-20T08:35:11.484Z,8.75
2023-04-20T08:37:38.917Z,7.80
2023-04-20T08:40:06.051Z,7.65
2023-04-20T08:42:36.397Z,7.70
2023-04-20T08:45:08.228Z,6.10
2023-04-20T08:47:35.554Z,6.18
2023-04-20T08:50:09.210Z,5.10
2023-04-20T08:52:39.043Z,5.47
2023-04-20T08:55:08.345Z,5.25
2023-04-20T08:57:34.992Z,4.60
2023-04-20T09:00:05.533Z,4.70
2023-04-20T09:02:34.446Z,4.18
2023-04-20T09:05:02.915Z,3.40
2023-04-20T09:10:00.901Z,3.20
2023-04-20T09:12:28.119Z,3.40
2023-04-20T09:14:57.811Z,3.70
2023-04-20T09:17:32.452Z,4.28
2023-04-20T09:19:59.634Z,4.70
2023-04-20T09:22:31.671Z,4.90
2023-04-20T09:25:00.446Z,5.93
2023-04-20T09:27:28.707Z,5.50
2023-04-20T09:30:04.137Z,5.75
2023-04-20T09:32:33.967Z,6.22
2023-04-20T09:35:03.877Z,7.30
2023-04-20T09:37:31.174Z,6.93
2023-04-20T09:40:01.225Z,7.13
2023-04-20T09:42:30.561Z,6.28
2023-04-20T09:44:57.348Z,7.15
2023-04-20T09:47:26.042Z,7.20
2023-04-20T09:49:53.392Z,7.70
2023-04-20T09:52:19.755Z,6.53
2023-04-20T09:54:46.940Z,7.40
2023-04-20T09:57:14.720Z,6.80
2023-04-20T09:59:43.670Z,6.70
2023-04-20T10:02:13.927Z,6.82
2023-04-20T10:04:58.551Z,6.75
2023-04-20T10:07:29.591Z,6.07
2023-04-20T10:10:16.021Z,6.68
2023-04-20T10:12:58.050Z,6.70
2023-04-20T10:15:36.966Z,5.80
2023-04-20T10:18:17.914Z,6.10
2023-04-20T10:20:45.228Z,5.32
2023-04-20T10:23:17.025Z,5.68
2023-04-20T10:25:57.585Z,5.45
2023-04-20T10:28:24.005Z,5.40
2023-04-20T10:30:53.817Z,5.57
2023-04-20T10:36:06.833Z,5.15
2023-04-20T10:38:37.251Z,4.53
2023-04-20T10:41:11.253Z,5.10
2023-04-20T10:43:42.176Z,4.97
2023-04-20T10:46:28.643Z,5.20
2023-04-20T10:48:58.013Z,5.35
2023-04-20T10:51:26.897Z,5.10
2023-04-20T10:54:07.501Z,5.00
2023-04-20T10:56:42.090Z,5.22
2023-04-20T10:59:18.349Z,5.50
2023-04-20T11:01:46.546Z,5.72
2023-04-20T11:04:15.518Z,6.18
2023-04-20T11:06:47.947Z,6.38
2023-04-20T11:09:28.715Z,6.00
2023-04-20T11:12:04.619Z,6.60
2023-04-20T11:14:41.927Z,6.53
2023-04-20T11:17:11.109Z,6.75
2023-04-20T11:19:38.046Z,7.00
2023-04-20T11:22:06.267Z,6.82
2023-04-20T11:24:34.875Z,6.40
2023-04-20T11:32:26.706Z,6.90
2023-04-20T11:35:08.049Z,7.82
2023-04-20T11:37:53.635Z,7.30
2023-04-20T11:40:21.197Z,7.63
2023-04-20T11:42:47.770Z,7.72
2023-04-20T11:45:14.138Z,7.20
2023-04-20T11:47:42.778Z,6.70
2023-04-20T11:50:11.762Z,8.00
2023-04-20T11:52:38.451Z,7.20
2023-04-20T11:55:05.807Z,8.02
2023-04-20T11:57:32.720Z,7.20
2023-04-20T12:00:00.964Z,7.68
2023-04-20T12:02:27.401Z,7.70
2023-04-20T12:04:54.120Z,7.70
2023-04-20T12:07:22.106Z,7.72
2023-04-20T12:09:49.989Z,7.88
2023-04-20T12:12:17.056Z,8.45
2023-04-20T12:14:43.701Z,8.68
2023-04-20T12:17:10.049Z,8.13
2023-04-20T12:19:36.787Z,8.57
2023-04-20T12:22:03.618Z,8.90
2023-04-20T12:24:30.985Z,9.85
2023-04-20T12:26:58.018Z,9.18
2023-04-20T12:29:24.405Z,9.60
2023-04-20T12:31:50.830Z,10.00
2023-04-20T12:34:17.520Z,9.02
2023-04-20T12:36:44.071Z,10.35
2023-04-20T12:39:11.813Z,9.63
2023-04-20T12:41:38.183Z,10.13
2023-04-20T12:44:07.083Z,10.05
2023-04-20T12:46:34.609Z,9.60
2023-04-20T12:49:01.105Z,10.55
2023-04-20T12:51:28.491Z,9.80
2023-04-20T12:53:56.163Z,10.07
2023-04-20T12:56:23.091Z,11.03
2023-04-20T12:58:49.430Z,10.63
2023-04-20T13:01:15.811Z,10.65
2023-04-20T13:03:42.583Z,9.90
2023-04-20T13:06:12.962Z,10.18
2023-04-20T13:08:40.714Z,9.55
2023-04-20T13:11:07.047Z,9.70
2023-04-20T13:13:33.459Z,9.55
2023-04-20T13:15:59.893Z,10.18
2023-04-20T13:18:26.417Z,10.43
2023-04-20T13:20:53.037Z,10.10
2023-04-20T13:23:19.624Z,9.98
2023-04-20T13:25:47.389Z,10.73
2023-04-20T13:28:14.782Z,10.20
2023-04-20T13:30:41.419Z,11.57
2023-04-20T13:33:07.979Z,10.30
2023-04-20T13:35:37.732Z,10.50
2023-04-20T13:38:04.845Z,10.23
2023-04-20T13:40:31.248Z,9.38
2023-04-20T13:42:57.546Z,9.82
2023-04-20T13:45:24.968Z,9.23
2023-04-20T13:47:51.479Z,9.85
2023-04-20T13:50:17.897Z,8.13
2023-04-20T13:52:44.506Z,7.65
2023-04-20T13:55:11.354Z,7.65
2023-04-20T13:57:37.777Z,8.60
2023-04-20T14:00:05.212Z,7.93
2023-04-20T14:02:32.654Z,7.82
2023-04-20T14:04:59.472Z,8.80
2023-04-20T14:07:26.014Z,8.48
2023-04-20T14:09:56.256Z,8.23
2023-04-20T14:12:22.970Z,7.88
2023-04-20T14:14:49.450Z,7.38
2023-04-20T14:17:16.018Z,6.63
2023-04-20T14:19:42.419Z,7.68
2023-04-20T14:22:09.062Z,7.28
2023-04-20T14:24:35.445Z,7.72
2023-04-20T14:27:01.899Z,7.32
2023-04-20T14:29:28.482Z,7.15
2023-04-20T14:31:55.557Z,7.50
2023-04-20T14:34:22.395Z,7.30
2023-04-20T14:36:48.958Z,6.63
2023-04-20T14:39:15.825Z,6.95
2023-04-20T14:41:42.201Z,7.22
2023-04-20T14:44:08.518Z,6.72
2023-04-20T14:46:37.368Z,6.97
2023-04-20T14:49:04.225Z,7.00
2023-04-20T14:51:32.316Z,7.35
2023-04-20T14:53:59.029Z,7.68
2023-04-20T14:56:25.653Z,7.15
2023-04-20T14:58:53.898Z,6.00
2023-04-20T15:01:21.704Z,5.57
2023-04-20T15:03:48.696Z,5.93
2023-04-20T15:06:15.108Z,5.85
2023-04-20T15:08:41.536Z,6.05
2023-04-20T15:11:08.270Z,5.38
2023-04-20T15:13:34.697Z,5.43
2023-04-20T15:16:01.218Z,5.47
2023-04-20T15:18:27.899Z,5.82
2023-04-20T15:20:54.312Z,5.97
2023-04-20T15:23:21.093Z,5.20
2023-04-20T15:25:47.734Z,5.10
2023-04-20T15:28:14.356Z,5.65
2023-04-20T15:30:41.791Z,5.13
2023-04-20T15:33:08.369Z,5.50
2023-04-20T15:35:35.601Z,5.55
2023-04-20T15:38:04.119Z,5.38
2023-04-20T15:42:57.152Z,5.28
2023-04-20T15:45:23.716Z,5.60
2023-04-20T15:47:51.153Z,5.65
2023-04-20T15:50:17.862Z,5.57
2023-04-20T15:52:45.694Z,5.40
2023-04-20T15:55:12.133Z,5.72
2023-04-20T15:57:38.881Z,5.70
2023-04-20T16:00:06.150Z,5.53
2023-04-20T16:02:32.683Z,4.95
2023-04-20T16:05:00.551Z,5.22
2023-04-20T16:07:27.116Z,5.43
2023-04-20T16:09:53.868Z,5.75
2023-04-20T16:12:20.255Z,5.60
2023-04-20T16:14:46.708Z,5.18
2023-04-20T16:17:13.478Z,5.65
2023-04-20T16:19:40.423Z,5.50
2023-04-20T16:22:07.058Z,5.70
2023-04-20T16:24:33.457Z,5.93
2023-04-20T16:27:01.547Z,5.40
2023-04-20T16:29:28.497Z,5.00
2023-04-20T16:31:57.864Z,5.07
2023-04-20T16:34:24.472Z,5.72
2023-04-20T16:36:50.849Z,5.45
2023-04-20T16:39:18.625Z,5.68
2023-04-20T16:41:45.640Z,5.72
2023-04-20T16:44:16.279Z,5.03
2023-04-20T16:46:43.787Z,5.45
2023-04-20T16:49:11.719Z,5.43
2023-04-20T16:51:38.325Z,5.07
2023-04-20T16:54:05.070Z,5.50
2023-04-20T16:56:31.675Z,5.57
2023-04-20T16:58:58.283Z,5.68
2023-04-20T17:01:24.901Z,5.82
2023-04-20T17:03:51.568Z,5.45
2023-04-20T17:06:18.135Z,5.70
2023-04-20T17:08:44.713Z,5.30
2023-04-20T17:11:11.089Z,5.72
2023-04-20T17:13:38.819Z,6.20
2023-04-20T17:16:05.371Z,5.72
2023-04-20T17:18:34.198Z,5.78
2023-04-20T17:21:01.695Z,5.60
2023-04-20T17:23:28.086Z,6.07
2023-04-20T17:25:54.723Z,6.30
2023-04-20T17:28:21.164Z,5.97
2023-04-20T17:30:47.466Z,6.18
2023-04-20T17:33:13.896Z,6.15
2023-04-20T17:35:40.673Z,5.93
2023-04-20T17:38:07.168Z,6.20
2023-04-20T17:40:34.087Z,6.20
2023-04-20T17:43:01.415Z,6.18
2023-04-20T17:45:27.885Z,6.28
2023-04-20T17:47:56.263Z,5.82
2023-04-20T17:50:23.152Z,6.75
2023-04-20T17:52:51.370Z,6.70
2023-04-20T17:55:18.086Z,6.82
2023-04-20T17:57:45.612Z,7.00
2023-04-20T18:00:12.814Z,7.05
2023-04-20T18:02:39.814Z,6.45
2023-04-20T18:05:06.945Z,6.72
2023-04-20T18:07:34.047Z,6.82
2023-04-20T18:10:00.440Z,6.88
2023-04-20T18:12:26.918Z,7.47
2023-04-20T18:14:56.320Z,6.85
2023-04-20T18:17:23.027Z,7.70
2023-04-20T18:19:49.708Z,7.75
2023-04-20T18:22:16.546Z,7.40
2023-04-20T18:24:43.104Z,7.32
2023-04-20T18:27:10.046Z,7.10
2023-04-20T18:29:37.977Z,7.85
2023-04-20T18:32:04.658Z,8.88
2023-04-20T18:34:32.124Z,9.10
2023-04-20T18:36:59.195Z,8.75
2023-04-20T18:39:26.341Z,8.75
2023-04-20T18:41:52.706Z,8.93
2023-04-20T18:44:19.673Z,9.50
2023-04-20T18:46:46.584Z,8.80
2023-04-20T18:49:13.115Z,10.05
2023-04-20T18:51:40.782Z,10.23
2023-04-20T18:54:07.102Z,11.20
2023-04-20T18:56:33.689Z,10.98
2023-04-20T18:59:00.328Z,11.18
2023-04-20T19:01:27.470Z,11.68
2023-04-20T19:03:54.433Z,11.88
2023-04-20T19:06:20.811Z,12.02
2023-04-20T19:08:47.330Z,12.38
2023-04-20T19:11:13.701Z,12.38
2023-04-20T19:13:44.488Z,13.45
2023-04-20T19:16:12.193Z,13.02
2023-04-20T19:18:39.459Z,13.17
2023-04-20T19:21:06.058Z,13.38
2023-04-20T19:23:32.713Z,13.23
2023-04-20T19:25:59.122Z,13.02
2023-04-20T19:28:25.573Z,13.25
2023-04-20T19:30:52.718Z,14.23
2023-04-20T19:33:19.294Z,14.27
2023-04-20T19:35:50.524Z,14.02
2023-04-20T19:38:21.338Z,13.70
2023-04-20T19:40:48.829Z,13.45
2023-04-20T19:43:16.929Z,13.70
2023-04-20T19:45:43.855Z,13.45
2023-04-20T19:48:11.003Z,12.88
2023-04-20T19:50:37.436Z,13.65
2023-04-20T19:53:04.163Z,13.35
2023-04-20T19:55:31.155Z,13.52
2023-04-20T19:57:57.785Z,13.10
2023-04-20T20:00:24.484Z,12.40
2023-04-20T20:02:52.532Z,13.45
2023-04-20T20:05:19.097Z,13.85
2023-04-20T20:07:45.683Z,12.88
2023-04-20T20:10:12.128Z,13.10
2023-04-20T20:12:38.870Z,12.15
2023-04-20T20:15:06.574Z,11.88
2023-04-20T20:17:32.981Z,11.67
2023-04-20T20:20:00.460Z,11.98
2023-04-20T20:22:26.928Z,11.25
2023-04-20T20:24:54.637Z,11.70
2023-04-20T20:27:21.424Z,12.80
2023-04-20T20:29:47.927Z,12.25
2023-04-20T20:32:14.546Z,11.25
2023-04-20T20:34:41.441Z,12.30
2023-04-20T20:37:10.536Z,12.10
2023-04-20T20:39:37.578Z,12.32
2023-04-20T20:42:05.901Z,11.88
2023-04-20T20:44:34.623Z,12.68
2023-04-20T20:47:01.117Z,12.30
2023-04-20T20:49:28.787Z,12.10
2023-04-20T20:51:55.225Z,12.60
2023-04-20T20:54:22.113Z,13.27
2023-04-20T20:56:48.808Z,12.90
2023-04-20T20:59:15.836Z,13.10
2023-04-20T21:01:42.429Z,13.05
2023-04-20T21:04:10.369Z,12.98
2023-04-20T21:06:36.817Z,12.30
2023-04-20T21:09:04.390Z,12.90
2023-04-20T21:11:30.817Z,13.07
2023-04-20T21:14:02.077Z,11.75
2023-04-20T21:16:30.108Z,12.82
2023-04-20T21:18:56.514Z,13.40
2023-04-20T21:21:23.004Z,13.73
2023-04-20T21:23:50.774Z,12.80
2023-04-20T21:26:17.209Z,13.43
2023-04-20T21:28:43.989Z,12.77
2023-04-20T21:31:10.552Z,13.10
2023-04-20T21:33:37.164Z,12.85
2023-04-20T21:36:05.401Z,13.32
2023-04-20T21:38:31.946Z,13.93
2023-04-20T21:40:58.561Z,13.70
2023-04-20T21:43:24.905Z,13.55
2023-04-20T21:45:51.731Z,14.82
2023-04-20T21:48:18.618Z,13.93
2023-04-20T21:50:45.027Z,13.25
2023-04-20T21:53:11.661Z,14.68
2023-04-20T21:55:38.046Z,14.70
2023-04-20T21:58:04.390Z,15.20
2023-04-20T22:00:31.056Z,15.10
2023-04-20T22:02:57.566Z,16.25
2023-04-20T22:05:24.099Z,15.18
2023-04-20T22:07:50.558Z,16.70
2023-04-20T22:10:16.992Z,17.30
2023-04-20T22:12:43.651Z,16.05
2023-04-20T22:15:13.382Z,15.63
2023-04-20T22:17:40.846Z,16.27
2023-04-20T22:20:10.317Z,16.65
2023-04-20T22:22:37.832Z,17.02
2023-04-20T22:25:06.683Z,17.25
2023-04-20T22:27:34.256Z,17.33
2023-04-20T22:30:00.979Z,15.75
2023-04-20T22:32:27.871Z,17.75
2023-04-20T22:34:54.486Z,16.83
2023-04-20T22:37:20.850Z,17.13
2023-04-20T22:39:47.177Z,17.10
2023-04-20T22:42:13.585Z,17.20
2023-04-20T22:44:39.934Z,17.67
2023-04-20T22:47:06.435Z,17.85
2023-04-20T22:49:32.891Z,17.38
2023-04-20T22:51:59.495Z,17.83
2023-04-20T22:54:26.051Z,18.63
2023-04-20T22:56:52.475Z,18.15
2023-04-20T22:59:19.728Z,17.75
2023-04-20T23:01:46.715Z,18.45
2023-04-20T23:04:13.366Z,18.52
2023-04-20T23:06:43.631Z,18.90
2023-04-20T23:09:12.384Z,19.60
2023-04-20T23:11:39.497Z,19.63
2023-04-20T23:14:06.973Z,18.85
2023-04-20T23:16:33.858Z,19.88
2023-04-20T23:19:01.302Z,18.90
2023-04-20T23:21:28.686Z,19.05
2023-04-20T23:23:57.653Z,19.13
2023-04-20T23:26:25.293Z,20.00
2023-04-20T23:28:52.341Z,19.80
2023-04-20T23:31:19.639Z,19.67
2023-04-20T23:33:47.065Z,20.52
2023-04-20T23:36:13.553Z,20.65
2023-04-20T23:38:40.311Z,20.90
2023-04-20T23:41:12.534Z,19.85
2023-04-20T23:43:39.306Z,19.77
2023-04-20T23:46:06.861Z,20.38
2023-04-20T23:48:34.003Z,20.07
2023-04-20T23:51:00.947Z,20.05
2023-04-20T23:53:27.448Z,19.73
2023-04-20T23:55:56.736Z,21.92
2023-04-20T23:58:24.887Z,21.77
